sensor_id;sensor_type;location;lat;lon;timestamp;P1;durP1;ratioP1;P2;durP2;ratioP2
7493;SDS011;3788;49.902;8.590;2023-07-29T00:01:12;2.73;;;2.53;;
7493;SDS011;3788;49.902;8.590;2023-07-29T00:03:38;3.07;;;2.80;;
7493;SDS011;3788;49.902;8.590;2023-07-29T00:06:05;3.60;;;3.00;;
7493;SDS011;3788;49.902;8.590;2023-07-29T00:08:32;4.20;;;3.00;;
7493;SDS011;3788;49.902;8.590;2023-07-29T00:11:00;3.43;;;3.13;;
7493;SDS011;3788;49.902;8.590;2023-07-29T00:13:27;3.67;;;3.33;;
7493;SDS011;3788;49.902;8.590;2023-07-29T00:15:54;3.80;;;3.13;;
7493;SDS011;3788;49.902;8.590;2023-07-29T00:18:21;2.67;;;2.37;;
7493;SDS011;3788;49.902;8.590;2023-07-29T00:20:48;3.30;;;3.00;;
7493;SDS011;3788;49.902;8.590;2023-07-29T00:23:15;4.63;;;2.97;;
7493;SDS011;3788;49.902;8.590;2023-07-29T00:25:43;2.67;;;2.23;;
7493;SDS011;3788;49.902;8.590;2023-07-29T00:28:12;2.60;;;2.33;;
7493;SDS011;3788;49.902;8.590;2023-07-29T00:30:39;2.00;;;1.90;;
7493;SDS011;3788;49.902;8.590;2023-07-29T00:33:05;3.10;;;2.47;;
7493;SDS011;3788;49.902;8.590;2023-07-29T00:35:32;2.63;;;2.43;;
7493;SDS011;3788;49.902;8.590;2023-07-29T00:37:59;2.03;;;1.83;;
7493;SDS011;3788;49.902;8.590;2023-07-29T00:40:27;2.37;;;2.17;;
7493;SDS011;3788;49.902;8.590;2023-07-29T00:42:54;2.57;;;2.37;;
7493;SDS011;3788;49.902;8.590;2023-07-29T00:45:22;2.30;;;2.07;;
7493;SDS011;3788;49.902;8.590;2023-07-29T00:47:50;2.30;;;2.10;;
7493;SDS011;3788;49.902;8.590;2023-07-29T00:50:17;2.53;;;2.07;;
7493;SDS011;3788;49.902;8.590;2023-07-29T00:52:44;1.80;;;1.70;;
7493;SDS011;3788;49.902;8.590;2023-07-29T00:55:11;1.93;;;1.83;;
7493;SDS011;3788;49.902;8.590;2023-07-29T00:57:38;2.03;;;1.83;;
7493;SDS011;3788;49.902;8.590;2023-07-29T01:00:05;2.30;;;1.83;;
7493;SDS011;3788;49.902;8.590;2023-07-29T01:02:34;1.60;;;1.47;;
7493;SDS011;3788;49.902;8.590;2023-07-29T01:05:01;1.70;;;1.60;;
7493;SDS011;3788;49.902;8.590;2023-07-29T01:07:30;2.60;;;1.77;;
7493;SDS011;3788;49.902;8.590;2023-07-29T01:10:00;1.30;;;1.20;;
7493;SDS011;3788;49.902;8.590;2023-07-29T01:12:32;1.50;;;1.40;;
7493;SDS011;3788;49.902;8.590;2023-07-29T01:15:09;1.43;;;1.33;;
7493;SDS011;3788;49.902;8.590;2023-07-29T01:17:42;2.80;;;1.47;;
7493;SDS011;3788;49.902;8.590;2023-07-29T01:20:11;1.53;;;1.20;;
7493;SDS011;3788;49.902;8.590;2023-07-29T01:22:40;1.50;;;1.27;;
7493;SDS011;3788;49.902;8.590;2023-07-29T01:25:09;2.23;;;1.57;;
7493;SDS011;3788;49.902;8.590;2023-07-29T01:27:36;1.17;;;1.03;;
7493;SDS011;3788;49.902;8.590;2023-07-29T01:30:02;2.40;;;1.27;;
7493;SDS011;3788;49.902;8.590;2023-07-29T01:32:32;3.23;;;1.57;;
7493;SDS011;3788;49.902;8.590;2023-07-29T01:35:07;1.50;;;1.37;;
7493;SDS011;3788;49.902;8.590;2023-07-29T01:37:41;1.60;;;1.50;;
7493;SDS011;3788;49.902;8.590;2023-07-29T01:40:10;1.60;;;1.50;;
7493;SDS011;3788;49.902;8.590;2023-07-29T01:42:37;1.43;;;1.33;;
7493;SDS011;3788;49.902;8.590;2023-07-29T01:45:04;2.13;;;1.30;;
7493;SDS011;3788;49.902;8.590;2023-07-29T01:47:31;1.20;;;1.10;;
7493;SDS011;3788;49.902;8.590;2023-07-29T01:49:58;1.80;;;1.27;;
7493;SDS011;3788;49.902;8.590;2023-07-29T01:52:25;1.60;;;1.50;;
7493;SDS011;3788;49.902;8.590;2023-07-29T01:54:51;1.13;;;1.13;;
7493;SDS011;3788;49.902;8.590;2023-07-29T01:57:19;1.63;;;1.20;;
7493;SDS011;3788;49.902;8.590;2023-07-29T01:59:46;1.40;;;1.30;;
7493;SDS011;3788;49.902;8.590;2023-07-29T02:02:13;1.60;;;1.50;;
7493;SDS011;3788;49.902;8.590;2023-07-29T02:04:39;1.23;;;1.00;;
7493;SDS011;3788;49.902;8.590;2023-07-29T02:07:06;1.43;;;1.10;;
7493;SDS011;3788;49.902;8.590;2023-07-29T02:09:33;1.43;;;1.20;;
7493;SDS011;3788;49.902;8.590;2023-07-29T02:11:59;1.30;;;1.20;;
7493;SDS011;3788;49.902;8.590;2023-07-29T02:14:28;1.20;;;1.10;;
7493;SDS011;3788;49.902;8.590;2023-07-29T02:16:55;2.30;;;1.10;;
7493;SDS011;3788;49.902;8.590;2023-07-29T02:19:21;1.30;;;1.20;;
7493;SDS011;3788;49.902;8.590;2023-07-29T02:21:48;1.30;;;1.10;;
7493;SDS011;3788;49.902;8.590;2023-07-29T02:24:15;2.63;;;1.37;;
7493;SDS011;3788;49.902;8.590;2023-07-29T02:26:41;2.43;;;1.20;;
7493;SDS011;3788;49.902;8.590;2023-07-29T02:29:08;1.70;;;1.40;;
7493;SDS011;3788;49.902;8.590;2023-07-29T02:31:36;1.40;;;1.30;;
7493;SDS011;3788;49.902;8.590;2023-07-29T02:34:03;1.90;;;1.17;;
7493;SDS011;3788;49.902;8.590;2023-07-29T02:36:30;1.13;;;1.03;;
7493;SDS011;3788;49.902;8.590;2023-07-29T02:38:56;1.63;;;1.23;;
7493;SDS011;3788;49.902;8.590;2023-07-29T02:41:23;1.23;;;1.13;;
7493;SDS011;3788;49.902;8.590;2023-07-29T02:43:50;1.40;;;1.10;;
7493;SDS011;3788;49.902;8.590;2023-07-29T02:46:17;1.47;;;1.37;;
7493;SDS011;3788;49.902;8.590;2023-07-29T02:48:45;1.40;;;1.30;;
7493;SDS011;3788;49.902;8.590;2023-07-29T02:51:12;1.47;;;1.30;;
7493;SDS011;3788;49.902;8.590;2023-07-29T02:53:38;1.10;;;1.10;;
7493;SDS011;3788;49.902;8.590;2023-07-29T02:56:05;1.23;;;1.13;;
7493;SDS011;3788;49.902;8.590;2023-07-29T02:58:34;1.60;;;1.50;;
7493;SDS011;3788;49.902;8.590;2023-07-29T03:01:01;1.50;;;1.40;;
7493;SDS011;3788;49.902;8.590;2023-07-29T03:03:28;3.03;;;1.20;;
7493;SDS011;3788;49.902;8.590;2023-07-29T03:05:58;1.37;;;1.20;;
7493;SDS011;3788;49.902;8.590;2023-07-29T03:08:26;1.20;;;1.20;;
7493;SDS011;3788;49.902;8.590;2023-07-29T03:10:52;1.43;;;1.33;;
7493;SDS011;3788;49.902;8.590;2023-07-29T03:13:19;1.60;;;1.30;;
7493;SDS011;3788;49.902;8.590;2023-07-29T03:15:46;1.40;;;1.30;;
7493;SDS011;3788;49.902;8.590;2023-07-29T03:18:13;1.73;;;1.47;;
7493;SDS011;3788;49.902;8.590;2023-07-29T03:20:40;1.53;;;1.30;;
7493;SDS011;3788;49.902;8.590;2023-07-29T03:23:08;1.57;;;1.47;;
7493;SDS011;3788;49.902;8.590;2023-07-29T03:25:35;1.30;;;1.20;;
7493;SDS011;3788;49.902;8.590;2023-07-29T03:28:01;1.53;;;1.43;;
7493;SDS011;3788;49.902;8.590;2023-07-29T03:30:28;1.40;;;1.30;;
7493;SDS011;3788;49.902;8.590;2023-07-29T03:32:55;1.50;;;1.40;;
7493;SDS011;3788;49.902;8.590;2023-07-29T03:35:21;1.63;;;1.50;;
7493;SDS011;3788;49.902;8.590;2023-07-29T03:37:48;1.47;;;1.37;;
7493;SDS011;3788;49.902;8.590;2023-07-29T03:40:16;1.80;;;1.60;;
7493;SDS011;3788;49.902;8.590;2023-07-29T03:42:43;1.50;;;1.40;;
7493;SDS011;3788;49.902;8.590;2023-07-29T03:45:10;2.20;;;1.50;;
7493;SDS011;3788;49.902;8.590;2023-07-29T03:47:36;2.43;;;1.30;;
7493;SDS011;3788;49.902;8.590;2023-07-29T03:50:04;2.10;;;1.80;;
7493;SDS011;3788;49.902;8.590;2023-07-29T03:52:31;1.77;;;1.67;;
7493;SDS011;3788;49.902;8.590;2023-07-29T03:54:58;1.53;;;1.40;;
7493;SDS011;3788;49.902;8.590;2023-07-29T03:57:26;1.30;;;1.20;;
7493;SDS011;3788;49.902;8.590;2023-07-29T03:59:54;1.90;;;1.63;;
7493;SDS011;3788;49.902;8.590;2023-07-29T04:02:20;1.80;;;1.70;;
7493;SDS011;3788;49.902;8.590;2023-07-29T04:04:47;2.47;;;1.70;;
7493;SDS011;3788;49.902;8.590;2023-07-29T04:07:14;2.87;;;1.57;;
7493;SDS011;3788;49.902;8.590;2023-07-29T04:09:40;1.40;;;1.30;;
7493;SDS011;3788;49.902;8.590;2023-07-29T04:12:08;2.13;;;1.70;;
7493;SDS011;3788;49.902;8.590;2023-07-29T04:14:37;1.70;;;1.57;;
7493;SDS011;3788;49.902;8.590;2023-07-29T04:17:04;2.30;;;2.10;;
7493;SDS011;3788;49.902;8.590;2023-07-29T04:19:31;1.87;;;1.77;;
7493;SDS011;3788;49.902;8.590;2023-07-29T04:21:57;3.50;;;1.70;;
7493;SDS011;3788;49.902;8.590;2023-07-29T04:24:24;2.13;;;1.93;;
7493;SDS011;3788;49.902;8.590;2023-07-29T04:26:51;1.27;;;1.17;;
7493;SDS011;3788;49.902;8.590;2023-07-29T04:29:17;1.80;;;1.67;;
7493;SDS011;3788;49.902;8.590;2023-07-29T04:31:45;1.60;;;1.50;;
7493;SDS011;3788;49.902;8.590;2023-07-29T04:34:12;1.87;;;1.70;;
7493;SDS011;3788;49.902;8.590;2023-07-29T04:36:39;2.07;;;1.43;;
7493;SDS011;3788;49.902;8.590;2023-07-29T04:39:05;2.93;;;1.70;;
7493;SDS011;3788;49.902;8.590;2023-07-29T04:41:32;3.43;;;1.80;;
7493;SDS011;3788;49.902;8.590;2023-07-29T04:43:59;1.90;;;1.70;;
7493;SDS011;3788;49.902;8.590;2023-07-29T04:46:26;2.23;;;2.07;;
7493;SDS011;3788;49.902;8.590;2023-07-29T04:48:54;2.23;;;1.73;;
7493;SDS011;3788;49.902;8.590;2023-07-29T04:51:21;2.53;;;1.40;;
7493;SDS011;3788;49.902;8.590;2023-07-29T04:53:47;2.53;;;2.13;;
7493;SDS011;3788;49.902;8.590;2023-07-29T04:56:14;2.47;;;1.43;;
7493;SDS011;3788;49.902;8.590;2023-07-29T04:58:41;2.10;;;1.73;;
7493;SDS011;3788;49.902;8.590;2023-07-29T05:01:07;1.50;;;1.40;;
7493;SDS011;3788;49.902;8.590;2023-07-29T05:03:34;3.90;;;2.00;;
7493;SDS011;3788;49.902;8.590;2023-07-29T05:06:03;2.40;;;2.00;;
7493;SDS011;3788;49.902;8.590;2023-07-29T05:08:30;3.23;;;1.60;;
7493;SDS011;3788;49.902;8.590;2023-07-29T05:10:56;1.90;;;1.70;;
7493;SDS011;3788;49.902;8.590;2023-07-29T05:13:23;3.33;;;2.17;;
7493;SDS011;3788;49.902;8.590;2023-07-29T05:15:50;4.30;;;2.27;;
7493;SDS011;3788;49.902;8.590;2023-07-29T05:18:17;1.77;;;1.67;;
7493;SDS011;3788;49.902;8.590;2023-07-29T05:20:44;3.33;;;1.83;;
7493;SDS011;3788;49.902;8.590;2023-07-29T05:23:12;2.40;;;2.20;;
7493;SDS011;3788;49.902;8.590;2023-07-29T05:25:38;2.17;;;1.97;;
7493;SDS011;3788;49.902;8.590;2023-07-29T05:28:05;2.73;;;1.73;;
7493;SDS011;3788;49.902;8.590;2023-07-29T05:30:32;2.87;;;2.03;;
7493;SDS011;3788;49.902;8.590;2023-07-29T05:33:02;2.13;;;2.00;;
7493;SDS011;3788;49.902;8.590;2023-07-29T05:35:29;1.93;;;1.83;;
7493;SDS011;3788;49.902;8.590;2023-07-29T05:37:55;1.73;;;1.63;;
7493;SDS011;3788;49.902;8.590;2023-07-29T05:40:23;2.77;;;1.80;;
7493;SDS011;3788;49.902;8.590;2023-07-29T05:42:50;2.37;;;1.70;;
7493;SDS011;3788;49.902;8.590;2023-07-29T05:45:17;2.10;;;1.73;;
7493;SDS011;3788;49.902;8.590;2023-07-29T05:47:43;2.60;;;2.40;;
7493;SDS011;3788;49.902;8.590;2023-07-29T05:50:10;2.93;;;2.20;;
7493;SDS011;3788;49.902;8.590;2023-07-29T05:52:37;2.33;;;1.63;;
7493;SDS011;3788;49.902;8.590;2023-07-29T05:55:04;3.00;;;2.20;;
7493;SDS011;3788;49.902;8.590;2023-07-29T05:57:32;3.80;;;1.80;;
7493;SDS011;3788;49.902;8.590;2023-07-29T05:59:59;2.80;;;1.57;;
7493;SDS011;3788;49.902;8.590;2023-07-29T06:02:26;2.20;;;1.70;;
7493;SDS011;3788;49.902;8.590;2023-07-29T06:04:53;2.70;;;2.33;;
7493;SDS011;3788;49.902;8.590;2023-07-29T06:07:19;2.20;;;2.00;;
7493;SDS011;3788;49.902;8.590;2023-07-29T06:09:46;2.17;;;1.80;;
7493;SDS011;3788;49.902;8.590;2023-07-29T06:12:13;2.77;;;2.10;;
7493;SDS011;3788;49.902;8.590;2023-07-29T06:14:41;2.33;;;1.70;;
7493;SDS011;3788;49.902;8.590;2023-07-29T06:17:08;1.90;;;1.80;;
7493;SDS011;3788;49.902;8.590;2023-07-29T06:19:36;2.17;;;2.00;;
7493;SDS011;3788;49.902;8.590;2023-07-29T06:22:03;3.07;;;2.00;;
7493;SDS011;3788;49.902;8.590;2023-07-29T06:24:30;2.63;;;2.20;;
7493;SDS011;3788;49.902;8.590;2023-07-29T06:26:58;2.37;;;2.17;;
7493;SDS011;3788;49.902;8.590;2023-07-29T06:29:24;2.43;;;2.23;;
7493;SDS011;3788;49.902;8.590;2023-07-29T06:31:52;2.60;;;2.33;;
7493;SDS011;3788;49.902;8.590;2023-07-29T06:34:19;3.33;;;2.57;;
7493;SDS011;3788;49.902;8.590;2023-07-29T06:36:46;2.77;;;2.47;;
7493;SDS011;3788;49.902;8.590;2023-07-29T06:39:13;2.67;;;2.30;;
7493;SDS011;3788;49.902;8.590;2023-07-29T06:41:40;5.13;;;3.23;;
7493;SDS011;3788;49.902;8.590;2023-07-29T06:44:06;4.67;;;2.60;;
7493;SDS011;3788;49.902;8.590;2023-07-29T06:46:33;3.93;;;2.67;;
7493;SDS011;3788;49.902;8.590;2023-07-29T06:49:01;3.43;;;2.90;;
7493;SDS011;3788;49.902;8.590;2023-07-29T06:51:28;2.97;;;2.73;;
7493;SDS011;3788;49.902;8.590;2023-07-29T06:53:57;3.73;;;3.00;;
7493;SDS011;3788;49.902;8.590;2023-07-29T06:56:24;3.10;;;2.80;;
7493;SDS011;3788;49.902;8.590;2023-07-29T06:58:50;3.80;;;3.23;;
7493;SDS011;3788;49.902;8.590;2023-07-29T07:01:17;6.90;;;3.63;;
7493;SDS011;3788;49.902;8.590;2023-07-29T07:03:44;4.43;;;3.47;;
7493;SDS011;3788;49.902;8.590;2023-07-29T07:06:12;3.40;;;3.10;;
7493;SDS011;3788;49.902;8.590;2023-07-29T07:08:39;3.43;;;3.13;;
7493;SDS011;3788;49.902;8.590;2023-07-29T07:11:06;4.03;;;3.63;;
7493;SDS011;3788;49.902;8.590;2023-07-29T07:13:33;3.80;;;3.50;;
7493;SDS011;3788;49.902;8.590;2023-07-29T07:16:01;3.60;;;3.30;;
7493;SDS011;3788;49.902;8.590;2023-07-29T07:18:27;3.53;;;3.23;;
7493;SDS011;3788;49.902;8.590;2023-07-29T07:20:54;3.07;;;2.87;;
7493;SDS011;3788;49.902;8.590;2023-07-29T07:23:22;4.07;;;3.33;;
7493;SDS011;3788;49.902;8.590;2023-07-29T07:25:48;4.83;;;3.70;;
7493;SDS011;3788;49.902;8.590;2023-07-29T07:28:15;5.07;;;3.50;;
7493;SDS011;3788;49.902;8.590;2023-07-29T07:30:42;2.97;;;2.77;;
7493;SDS011;3788;49.902;8.590;2023-07-29T07:33:09;2.97;;;2.73;;
7493;SDS011;3788;49.902;8.590;2023-07-29T07:35:35;4.07;;;3.67;;
7493;SDS011;3788;49.902;8.590;2023-07-29T07:38:02;3.67;;;3.37;;
7493;SDS011;3788;49.902;8.590;2023-07-29T07:40:30;5.07;;;3.67;;
7493;SDS011;3788;49.902;8.590;2023-07-29T07:42:57;8.53;;;7.10;;
7493;SDS011;3788;49.902;8.590;2023-07-29T07:45:24;11.83;;;9.53;;
7493;SDS011;3788;49.902;8.590;2023-07-29T07:47:51;6.47;;;5.73;;
7493;SDS011;3788;49.902;8.590;2023-07-29T07:50:18;4.60;;;3.90;;
7493;SDS011;3788;49.902;8.590;2023-07-29T07:52:45;4.53;;;2.97;;
7493;SDS011;3788;49.902;8.590;2023-07-29T07:55:12;4.07;;;2.37;;
7493;SDS011;3788;49.902;8.590;2023-07-29T07:57:40;2.40;;;2.20;;
7493;SDS011;3788;49.902;8.590;2023-07-29T08:00:07;2.43;;;2.23;;
7493;SDS011;3788;49.902;8.590;2023-07-29T08:02:35;2.17;;;1.93;;
7493;SDS011;3788;49.902;8.590;2023-07-29T08:05:02;2.10;;;1.90;;
7493;SDS011;3788;49.902;8.590;2023-07-29T08:07:29;2.33;;;2.07;;
7493;SDS011;3788;49.902;8.590;2023-07-29T08:09:56;2.20;;;2.00;;
7493;SDS011;3788;49.902;8.590;2023-07-29T08:12:23;2.13;;;1.93;;
7493;SDS011;3788;49.902;8.590;2023-07-29T08:14:51;3.03;;;2.13;;
7493;SDS011;3788;49.902;8.590;2023-07-29T08:17:17;2.23;;;2.10;;
7493;SDS011;3788;49.902;8.590;2023-07-29T08:19:44;2.07;;;1.80;;
7493;SDS011;3788;49.902;8.590;2023-07-29T08:22:10;2.27;;;2.07;;
7493;SDS011;3788;49.902;8.590;2023-07-29T08:24:37;1.90;;;1.80;;
7493;SDS011;3788;49.902;8.590;2023-07-29T08:27:04;1.57;;;1.47;;
7493;SDS011;3788;49.902;8.590;2023-07-29T08:29:31;1.37;;;1.27;;
7493;SDS011;3788;49.902;8.590;2023-07-29T08:31:59;2.60;;;1.07;;
7493;SDS011;3788;49.902;8.590;2023-07-29T08:34:26;1.17;;;1.07;;
7493;SDS011;3788;49.902;8.590;2023-07-29T08:36:53;1.20;;;1.00;;
7493;SDS011;3788;49.902;8.590;2023-07-29T08:39:19;1.70;;;1.37;;
7493;SDS011;3788;49.902;8.590;2023-07-29T08:41:49;1.20;;;1.10;;
7493;SDS011;3788;49.902;8.590;2023-07-29T08:44:20;2.10;;;1.40;;
7493;SDS011;3788;49.902;8.590;2023-07-29T08:46:48;1.90;;;1.70;;
7493;SDS011;3788;49.902;8.590;2023-07-29T08:49:16;2.03;;;1.80;;
7493;SDS011;3788;49.902;8.590;2023-07-29T08:51:45;2.47;;;1.50;;
7493;SDS011;3788;49.902;8.590;2023-07-29T08:54:13;1.33;;;1.23;;
7493;SDS011;3788;49.902;8.590;2023-07-29T08:56:40;1.20;;;1.10;;
7493;SDS011;3788;49.902;8.590;2023-07-29T08:59:08;1.40;;;1.30;;
7493;SDS011;3788;49.902;8.590;2023-07-29T09:01:36;1.30;;;1.20;;
7493;SDS011;3788;49.902;8.590;2023-07-29T09:04:04;1.50;;;1.40;;
7493;SDS011;3788;49.902;8.590;2023-07-29T09:06:32;1.40;;;1.30;;
7493;SDS011;3788;49.902;8.590;2023-07-29T09:09:01;2.87;;;2.03;;
7493;SDS011;3788;49.902;8.590;2023-07-29T09:11:28;6.17;;;3.70;;
7493;SDS011;3788;49.902;8.590;2023-07-29T09:13:55;5.87;;;4.00;;
7493;SDS011;3788;49.902;8.590;2023-07-29T09:16:22;5.27;;;3.07;;
7493;SDS011;3788;49.902;8.590;2023-07-29T09:18:50;2.20;;;1.40;;
7493;SDS011;3788;49.902;8.590;2023-07-29T09:21:17;1.60;;;1.27;;
7493;SDS011;3788;49.902;8.590;2023-07-29T09:23:50;1.33;;;1.20;;
7493;SDS011;3788;49.902;8.590;2023-07-29T09:26:21;1.13;;;1.10;;
7493;SDS011;3788;49.902;8.590;2023-07-29T09:28:51;4.27;;;1.97;;
7493;SDS011;3788;49.902;8.590;2023-07-29T09:31:18;2.73;;;1.50;;
7493;SDS011;3788;49.902;8.590;2023-07-29T09:33:46;2.33;;;1.40;;
7493;SDS011;3788;49.902;8.590;2023-07-29T09:36:13;2.77;;;1.93;;
7493;SDS011;3788;49.902;8.590;2023-07-29T09:38:40;2.90;;;2.10;;
7493;SDS011;3788;49.902;8.590;2023-07-29T09:41:09;1.80;;;1.50;;
7493;SDS011;3788;49.902;8.590;2023-07-29T09:43:39;1.47;;;1.33;;
7493;SDS011;3788;49.902;8.590;2023-07-29T09:46:05;2.10;;;1.30;;
7493;SDS011;3788;49.902;8.590;2023-07-29T09:48:33;1.13;;;1.03;;
7493;SDS011;3788;49.902;8.590;2023-07-29T09:51:03;1.27;;;1.00;;
7493;SDS011;3788;49.902;8.590;2023-07-29T09:53:38;1.37;;;1.20;;
7493;SDS011;3788;49.902;8.590;2023-07-29T09:56:06;0.97;;;0.93;;
7493;SDS011;3788;49.902;8.590;2023-07-29T09:58:34;1.23;;;1.13;;
7493;SDS011;3788;49.902;8.590;2023-07-29T10:01:03;0.90;;;0.90;;
7493;SDS011;3788;49.902;8.590;2023-07-29T10:03:29;2.00;;;1.00;;
7493;SDS011;3788;49.902;8.590;2023-07-29T10:05:59;1.13;;;0.90;;
7493;SDS011;3788;49.902;8.590;2023-07-29T10:08:27;1.07;;;1.00;;
7493;SDS011;3788;49.902;8.590;2023-07-29T10:10:56;1.03;;;1.03;;
7493;SDS011;3788;49.902;8.590;2023-07-29T10:13:25;1.30;;;1.00;;
7493;SDS011;3788;49.902;8.590;2023-07-29T10:15:54;2.13;;;1.10;;
7493;SDS011;3788;49.902;8.590;2023-07-29T10:18:21;1.30;;;0.87;;
7493;SDS011;3788;49.902;8.590;2023-07-29T10:20:54;1.10;;;1.00;;
7493;SDS011;3788;49.902;8.590;2023-07-29T10:23:24;1.57;;;1.07;;
7493;SDS011;3788;49.902;8.590;2023-07-29T10:25:54;2.40;;;1.00;;
7493;SDS011;3788;49.902;8.590;2023-07-29T10:28:24;0.90;;;0.90;;
7493;SDS011;3788;49.902;8.590;2023-07-29T10:30:52;1.00;;;1.00;;
7493;SDS011;3788;49.902;8.590;2023-07-29T10:33:22;1.20;;;1.10;;
7493;SDS011;3788;49.902;8.590;2023-07-29T10:35:48;2.97;;;0.90;;
7493;SDS011;3788;49.902;8.590;2023-07-29T10:38:16;2.07;;;1.10;;
7493;SDS011;3788;49.902;8.590;2023-07-29T10:40:44;1.30;;;0.97;;
7493;SDS011;3788;49.902;8.590;2023-07-29T10:43:12;1.47;;;1.37;;
7493;SDS011;3788;49.902;8.590;2023-07-29T10:45:44;3.73;;;1.13;;
7493;SDS011;3788;49.902;8.590;2023-07-29T10:48:12;1.50;;;1.40;;
7493;SDS011;3788;49.902;8.590;2023-07-29T10:53:48;1.80;;;1.20;;
7493;SDS011;3788;49.902;8.590;2023-07-29T10:56:20;1.30;;;1.20;;
7493;SDS011;3788;49.902;8.590;2023-07-29T10:58:52;1.47;;;1.20;;
7493;SDS011;3788;49.902;8.590;2023-07-29T11:01:26;1.00;;;1.00;;
7493;SDS011;3788;49.902;8.590;2023-07-29T11:09:55;1.50;;;1.40;;
7493;SDS011;3788;49.902;8.590;2023-07-29T11:12:36;2.67;;;1.70;;
7493;SDS011;3788;49.902;8.590;2023-07-29T11:15:12;2.23;;;1.20;;
7493;SDS011;3788;49.902;8.590;2023-07-29T11:17:44;1.20;;;1.10;;
7493;SDS011;3788;49.902;8.590;2023-07-29T11:20:13;1.57;;;1.33;;
7493;SDS011;3788;49.902;8.590;2023-07-29T11:22:40;1.37;;;1.20;;
7493;SDS011;3788;49.902;8.590;2023-07-29T11:25:08;1.40;;;1.25;;
7493;SDS011;3788;49.902;8.590;2023-07-29T11:27:36;1.50;;;1.40;;
7493;SDS011;3788;49.902;8.590;2023-07-29T11:30:04;1.30;;;1.20;;
7493;SDS011;3788;49.902;8.590;2023-07-29T11:32:34;2.27;;;1.20;;
7493;SDS011;3788;49.902;8.590;2023-07-29T11:35:02;1.43;;;1.37;;
7493;SDS011;3788;49.902;8.590;2023-07-29T11:37:32;1.67;;;1.30;;
7493;SDS011;3788;49.902;8.590;2023-07-29T11:39:59;2.30;;;1.40;;
7493;SDS011;3788;49.902;8.590;2023-07-29T11:42:26;1.40;;;1.30;;
7493;SDS011;3788;49.902;8.590;2023-07-29T11:44:55;1.73;;;1.27;;
7493;SDS011;3788;49.902;8.590;2023-07-29T11:47:23;1.40;;;1.30;;
7493;SDS011;3788;49.902;8.590;2023-07-29T11:49:49;1.50;;;1.40;;
7493;SDS011;3788;49.902;8.590;2023-07-29T11:52:16;1.87;;;1.40;;
7493;SDS011;3788;49.902;8.590;2023-07-29T11:54:46;1.50;;;1.40;;
7493;SDS011;3788;49.902;8.590;2023-07-29T11:57:14;3.07;;;1.40;;
7493;SDS011;3788;49.902;8.590;2023-07-29T11:59:43;1.53;;;1.40;;
7493;SDS011;3788;49.902;8.590;2023-07-29T12:02:11;1.60;;;1.50;;
7493;SDS011;3788;49.902;8.590;2023-07-29T12:04:39;2.50;;;1.43;;
7493;SDS011;3788;49.902;8.590;2023-07-29T12:07:07;1.77;;;1.50;;
7493;SDS011;3788;49.902;8.590;2023-07-29T12:09:34;1.70;;;1.60;;
7493;SDS011;3788;49.902;8.590;2023-07-29T12:12:02;2.07;;;1.40;;
7493;SDS011;3788;49.902;8.590;2023-07-29T12:14:30;1.60;;;1.50;;
7493;SDS011;3788;49.902;8.590;2023-07-29T12:16:59;1.10;;;1.10;;
7493;SDS011;3788;49.902;8.590;2023-07-29T12:19:30;1.40;;;1.30;;
7493;SDS011;3788;49.902;8.590;2023-07-29T12:21:59;2.23;;;1.40;;
7493;SDS011;3788;49.902;8.590;2023-07-29T12:24:25;1.50;;;1.30;;
7493;SDS011;3788;49.902;8.590;2023-07-29T12:26:52;1.80;;;1.30;;
7493;SDS011;3788;49.902;8.590;2023-07-29T12:29:20;1.37;;;1.20;;
7493;SDS011;3788;49.902;8.590;2023-07-29T12:31:47;1.53;;;1.43;;
7493;SDS011;3788;49.902;8.590;2023-07-29T12:34:17;1.38;;;1.27;;
7493;SDS011;3788;49.902;8.590;2023-07-29T12:36:46;1.27;;;1.20;;
7493;SDS011;3788;49.902;8.590;2023-07-29T12:39:17;1.43;;;1.33;;
7493;SDS011;3788;49.902;8.590;2023-07-29T12:41:45;1.70;;;1.60;;
7493;SDS011;3788;49.902;8.590;2023-07-29T12:44:11;1.57;;;1.47;;
7493;SDS011;3788;49.902;8.590;2023-07-29T12:46:39;1.50;;;1.40;;
7493;SDS011;3788;49.902;8.590;2023-07-29T12:49:06;1.43;;;1.20;;
7493;SDS011;3788;49.902;8.590;2023-07-29T12:51:33;1.43;;;1.33;;
7493;SDS011;3788;49.902;8.590;2023-07-29T12:54:01;1.77;;;1.67;;
7493;SDS011;3788;49.902;8.590;2023-07-29T12:56:28;1.80;;;1.13;;
7493;SDS011;3788;49.902;8.590;2023-07-29T12:58:55;1.50;;;1.40;;
7493;SDS011;3788;49.902;8.590;2023-07-29T13:01:22;1.10;;;1.07;;
7493;SDS011;3788;49.902;8.590;2023-07-29T13:03:50;2.05;;;1.27;;
7493;SDS011;3788;49.902;8.590;2023-07-29T13:06:17;1.00;;;0.97;;
7493;SDS011;3788;49.902;8.590;2023-07-29T13:08:44;1.67;;;1.47;;
7493;SDS011;3788;49.902;8.590;2023-07-29T13:11:11;1.83;;;1.20;;
7493;SDS011;3788;49.902;8.590;2023-07-29T13:13:38;1.30;;;1.20;;
7493;SDS011;3788;49.902;8.590;2023-07-29T13:16:04;1.30;;;1.20;;
7493;SDS011;3788;49.902;8.590;2023-07-29T13:18:31;1.13;;;1.10;;
7493;SDS011;3788;49.902;8.590;2023-07-29T13:21:00;1.30;;;1.20;;
7493;SDS011;3788;49.902;8.590;2023-07-29T13:23:27;1.37;;;1.27;;
7493;SDS011;3788;49.902;8.590;2023-07-29T13:25:54;1.73;;;1.30;;
7493;SDS011;3788;49.902;8.590;2023-07-29T13:28:21;1.60;;;1.50;;
7493;SDS011;3788;49.902;8.590;2023-07-29T13:30:48;1.90;;;1.50;;
7493;SDS011;3788;49.902;8.590;2023-07-29T13:33:15;2.30;;;1.30;;
7493;SDS011;3788;49.902;8.590;2023-07-29T13:35:41;1.50;;;1.40;;
7493;SDS011;3788;49.902;8.590;2023-07-29T13:38:09;1.27;;;1.17;;
7493;SDS011;3788;49.902;8.590;2023-07-29T13:40:37;1.40;;;1.30;;
7493;SDS011;3788;49.902;8.590;2023-07-29T13:43:03;1.20;;;1.10;;
7493;SDS011;3788;49.902;8.590;2023-07-29T13:45:30;1.40;;;1.30;;
7493;SDS011;3788;49.902;8.590;2023-07-29T13:47:57;1.40;;;1.30;;
7493;SDS011;3788;49.902;8.590;2023-07-29T13:50:23;1.27;;;1.17;;
7493;SDS011;3788;49.902;8.590;2023-07-29T13:52:50;1.30;;;1.20;;
7493;SDS011;3788;49.902;8.590;2023-07-29T13:55:18;1.47;;;1.30;;
7493;SDS011;3788;49.902;8.590;2023-07-29T13:57:45;2.50;;;1.10;;
7493;SDS011;3788;49.902;8.590;2023-07-29T14:00:12;1.40;;;1.30;;
7493;SDS011;3788;49.902;8.590;2023-07-29T14:02:39;1.20;;;1.10;;
7493;SDS011;3788;49.902;8.590;2023-07-29T14:05:06;1.30;;;1.20;;
7493;SDS011;3788;49.902;8.590;2023-07-29T14:07:33;2.10;;;1.20;;
7493;SDS011;3788;49.902;8.590;2023-07-29T14:10:00;1.50;;;1.10;;
7493;SDS011;3788;49.902;8.590;2023-07-29T14:12:28;1.40;;;1.30;;
7493;SDS011;3788;49.902;8.590;2023-07-29T14:14:54;1.33;;;1.23;;
7493;SDS011;3788;49.902;8.590;2023-07-29T14:17:21;2.60;;;1.50;;
7493;SDS011;3788;49.902;8.590;2023-07-29T14:19:48;1.47;;;1.37;;
7493;SDS011;3788;49.902;8.590;2023-07-29T14:22:15;1.30;;;1.20;;
7493;SDS011;3788;49.902;8.590;2023-07-29T14:24:41;1.47;;;1.37;;
7493;SDS011;3788;49.902;8.590;2023-07-29T14:27:08;1.50;;;1.40;;
7493;SDS011;3788;49.902;8.590;2023-07-29T14:29:36;2.60;;;1.23;;
7493;SDS011;3788;49.902;8.590;2023-07-29T14:32:03;1.40;;;1.30;;
7493;SDS011;3788;49.902;8.590;2023-07-29T14:34:30;1.30;;;1.20;;
7493;SDS011;3788;49.902;8.590;2023-07-29T14:36:57;1.70;;;1.40;;
7493;SDS011;3788;49.902;8.590;2023-07-29T14:39:23;2.83;;;1.40;;
7493;SDS011;3788;49.902;8.590;2023-07-29T14:41:50;2.23;;;1.40;;
7493;SDS011;3788;49.902;8.590;2023-07-29T14:44:17;1.40;;;1.30;;
7493;SDS011;3788;49.902;8.590;2023-07-29T14:46:45;2.00;;;1.40;;
7493;SDS011;3788;49.902;8.590;2023-07-29T14:49:11;4.33;;;1.40;;
7493;SDS011;3788;49.902;8.590;2023-07-29T14:51:38;1.53;;;1.03;;
7493;SDS011;3788;49.902;8.590;2023-07-29T14:54:05;1.17;;;1.10;;
7493;SDS011;3788;49.902;8.590;2023-07-29T14:56:31;1.03;;;1.03;;
7493;SDS011;3788;49.902;8.590;2023-07-29T14:58:58;1.50;;;1.40;;
7493;SDS011;3788;49.902;8.590;2023-07-29T15:01:25;1.70;;;1.60;;
7493;SDS011;3788;49.902;8.590;2023-07-29T15:03:53;1.30;;;1.20;;
7493;SDS011;3788;49.902;8.590;2023-07-29T15:06:19;1.93;;;1.53;;
7493;SDS011;3788;49.902;8.590;2023-07-29T15:08:46;1.60;;;1.50;;
7493;SDS011;3788;49.902;8.590;2023-07-29T15:11:13;1.60;;;0.97;;
7493;SDS011;3788;49.902;8.590;2023-07-29T15:13:39;1.30;;;1.20;;
7493;SDS011;3788;49.902;8.590;2023-07-29T15:16:06;1.40;;;1.30;;
7493;SDS011;3788;49.902;8.590;2023-07-29T15:18:33;1.40;;;1.30;;
7493;SDS011;3788;49.902;8.590;2023-07-29T15:21:01;1.63;;;1.10;;
7493;SDS011;3788;49.902;8.590;2023-07-29T15:23:28;1.40;;;1.30;;
7493;SDS011;3788;49.902;8.590;2023-07-29T15:25:56;1.40;;;1.30;;